sensor_id;sensor_type;location;lat;lon;timestamp;temperature;humidity
10431;DHT22;5262;59.958;17.726;2023-02-01T00:02:04;-5.20;99.90
10431;DHT22;5262;59.958;17.726;2023-02-01T00:04:30;-5.20;99.90
10431;DHT22;5262;59.958;17.726;2023-02-01T00:06:56;-5.20;99.90
10431;DHT22;5262;59.958;17.726;2023-02-01T00:09:21;-5.20;99.90
10431;DHT22;5262;59.958;17.726;2023-02-01T00:11:47;-5.10;99.90
10431;DHT22;5262;59.958;17.726;2023-02-01T00:14:13;-5.10;99.90
10431;DHT22;5262;59.958;17.726;2023-02-01T00:16:39;-5.10;99.90
10431;DHT22;5262;59.958;17.726;2023-02-01T00:19:07;-5.00;99.90
10431;DHT22;5262;59.958;17.726;2023-02-01T00:21:33;-4.90;99.90
10431;DHT22;5262;59.958;17.726;2023-02-01T00:23:59;-4.80;99.90
10431;DHT22;5262;59.958;17.726;2023-02-01T00:26:34;-4.80;99.90
10431;DHT22;5262;59.958;17.726;2023-02-01T00:29:02;-4.70;99.90
10431;DHT22;5262;59.958;17.726;2023-02-01T00:31:28;-4.60;99.90
10431;DHT22;5262;59.958;17.726;2023-02-01T00:33:54;-4.60;99.90
10431;DHT22;5262;59.958;17.726;2023-02-01T00:36:20;-4.50;99.90
10431;DHT22;5262;59.958;17.726;2023-02-01T00:38:46;-4.50;99.90
10431;DHT22;5262;59.958;17.726;2023-02-01T00:41:12;-4.40;99.90
10431;DHT22;5262;59.958;17.726;2023-02-01T00:43:39;-4.30;99.90
10431;DHT22;5262;59.958;17.726;2023-02-01T00:46:05;-4.20;99.90
10431;DHT22;5262;59.958;17.726;2023-02-01T00:48:31;-4.20;99.90
10431;DHT22;5262;59.958;17.726;2023-02-01T00:51:06;-4.10;99.90
10431;DHT22;5262;59.958;17.726;2023-02-01T00:53:32;-4.00;99.90
10431;DHT22;5262;59.958;17.726;2023-02-01T00:55:59;-4.00;99.90
10431;DHT22;5262;59.958;17.726;2023-02-01T00:58:26;-3.90;99.90
10431;DHT22;5262;59.958;17.726;2023-02-01T01:03:26;-3.90;99.90
10431;DHT22;5262;59.958;17.726;2023-02-01T01:05:56;-3.90;99.90
10431;DHT22;5262;59.958;17.726;2023-02-01T01:08:22;-3.80;99.90
10431;DHT22;5262;59.958;17.726;2023-02-01T01:10:48;-3.80;99.90
10431;DHT22;5262;59.958;17.726;2023-02-01T01:13:15;-3.80;99.90
10431;DHT22;5262;59.958;17.726;2023-02-01T01:15:41;-3.80;99.90
10431;DHT22;5262;59.958;17.726;2023-02-01T01:18:07;-3.80;99.90
10431;DHT22;5262;59.958;17.726;2023-02-01T01:20:38;-3.80;99.90
10431;DHT22;5262;59.958;17.726;2023-02-01T01:23:04;-3.80;99.90
10431;DHT22;5262;59.958;17.726;2023-02-01T01:25:31;-3.80;99.90
10431;DHT22;5262;59.958;17.726;2023-02-01T01:27:57;-3.80;99.90
10431;DHT22;5262;59.958;17.726;2023-02-01T01:30:23;-3.70;99.90
10431;DHT22;5262;59.958;17.726;2023-02-01T01:32:48;-3.70;99.90
10431;DHT22;5262;59.958;17.726;2023-02-01T01:35:14;-3.70;99.90
10431;DHT22;5262;59.958;17.726;2023-02-01T01:37:40;-3.70;99.90
10431;DHT22;5262;59.958;17.726;2023-02-01T01:40:06;-3.70;99.90
10431;DHT22;5262;59.958;17.726;2023-02-01T01:42:40;-3.70;99.90
10431;DHT22;5262;59.958;17.726;2023-02-01T01:45:33;-3.80;99.90
10431;DHT22;5262;59.958;17.726;2023-02-01T01:48:07;-3.80;99.90
10431;DHT22;5262;59.958;17.726;2023-02-01T01:50:47;-3.90;99.90
10431;DHT22;5262;59.958;17.726;2023-02-01T01:53:18;-3.90;99.90
10431;DHT22;5262;59.958;17.726;2023-02-01T01:55:45;-4.00;99.90
10431;DHT22;5262;59.958;17.726;2023-02-01T01:58:18;-4.00;99.90
10431;DHT22;5262;59.958;17.726;2023-02-01T02:00:45;-4.10;99.90
10431;DHT22;5262;59.958;17.726;2023-02-01T02:05:39;-4.30;99.90
10431;DHT22;5262;59.958;17.726;2023-02-01T02:08:05;-4.40;99.90
10431;DHT22;5262;59.958;17.726;2023-02-01T02:10:31;-4.40;99.90
10431;DHT22;5262;59.958;17.726;2023-02-01T02:13:16;-4.50;99.90
10431;DHT22;5262;59.958;17.726;2023-02-01T02:15:49;-4.60;99.90
10431;DHT22;5262;59.958;17.726;2023-02-01T02:27:04;-4.70;99.90
10431;DHT22;5262;59.958;17.726;2023-02-01T02:32:58;-4.70;99.90
10431;DHT22;5262;59.958;17.726;2023-02-01T02:35:47;-4.70;99.90
10431;DHT22;5262;59.958;17.726;2023-02-01T02:38:29;-4.70;99.90
10431;DHT22;5262;59.958;17.726;2023-02-01T02:41:18;-4.70;99.90
10431;DHT22;5262;59.958;17.726;2023-02-01T02:44:12;-4.70;99.90
10431;DHT22;5262;59.958;17.726;2023-02-01T02:47:02;-4.70;99.90
10431;DHT22;5262;59.958;17.726;2023-02-01T02:50:04;-4.70;99.90
10431;DHT22;5262;59.958;17.726;2023-02-01T02:53:14;-4.70;99.90
10431;DHT22;5262;59.958;17.726;2023-02-01T02:56:00;-4.70;99.90
10431;DHT22;5262;59.958;17.726;2023-02-01T02:58:46;-4.70;99.90
10431;DHT22;5262;59.958;17.726;2023-02-01T03:01:30;-4.60;99.90
10431;DHT22;5262;59.958;17.726;2023-02-01T03:04:16;-4.50;99.90
10431;DHT22;5262;59.958;17.726;2023-02-01T03:06:44;-4.40;99.90
10431;DHT22;5262;59.958;17.726;2023-02-01T03:09:27;-4.40;99.90
10431;DHT22;5262;59.958;17.726;2023-02-01T03:11:59;-4.40;99.90
10431;DHT22;5262;59.958;17.726;2023-02-01T03:14:48;-4.30;99.90
10431;DHT22;5262;59.958;17.726;2023-02-01T03:17:21;-4.30;99.90
10431;DHT22;5262;59.958;17.726;2023-02-01T03:19:51;-4.30;99.90
10431;DHT22;5262;59.958;17.726;2023-02-01T03:22:23;-4.20;99.90
10431;DHT22;5262;59.958;17.726;2023-02-01T03:24:56;-4.20;99.90
10431;DHT22;5262;59.958;17.726;2023-02-01T03:27:34;-4.10;99.90
10431;DHT22;5262;59.958;17.726;2023-02-01T03:30:28;-4.10;99.90
10431;DHT22;5262;59.958;17.726;2023-02-01T03:32:58;-4.10;99.90
10431;DHT22;5262;59.958;17.726;2023-02-01T03:41:41;-3.90;99.90
10431;DHT22;5262;59.958;17.726;2023-02-01T03:44:19;-3.90;99.90
10431;DHT22;5262;59.958;17.726;2023-02-01T03:46:54;-3.80;99.90
10431;DHT22;5262;59.958;17.726;2023-02-01T03:49:26;-3.80;99.90
10431;DHT22;5262;59.958;17.726;2023-02-01T03:51:54;-3.80;99.90
10431;DHT22;5262;59.958;17.726;2023-02-01T03:54:22;-3.70;99.90
10431;DHT22;5262;59.958;17.726;2023-02-01T03:56:50;-3.80;99.90
10431;DHT22;5262;59.958;17.726;2023-02-01T03:59:17;-3.70;99.90
10431;DHT22;5262;59.958;17.726;2023-02-01T04:01:42;-3.70;99.90
10431;DHT22;5262;59.958;17.726;2023-02-01T04:04:09;-3.70;99.90
10431;DHT22;5262;59.958;17.726;2023-02-01T04:06:35;-3.70;99.90
10431;DHT22;5262;59.958;17.726;2023-02-01T04:09:01;-3.70;99.90
10431;DHT22;5262;59.958;17.726;2023-02-01T04:11:28;-3.70;99.90
10431;DHT22;5262;59.958;17.726;2023-02-01T04:13:55;-3.60;99.90
10431;DHT22;5262;59.958;17.726;2023-02-01T04:16:21;-3.60;99.90
10431;DHT22;5262;59.958;17.726;2023-02-01T04:18:47;-3.60;99.90
10431;DHT22;5262;59.958;17.726;2023-02-01T04:21:13;-3.60;99.90
10431;DHT22;5262;59.958;17.726;2023-02-01T04:23:39;-3.60;99.90
10431;DHT22;5262;59.958;17.726;2023-02-01T04:26:04;-3.60;99.90
10431;DHT22;5262;59.958;17.726;2023-02-01T04:28:31;-3.50;99.90
10431;DHT22;5262;59.958;17.726;2023-02-01T04:30:57;-3.60;99.90
10431;DHT22;5262;59.958;17.726;2023-02-01T04:33:22;-3.50;99.90
10431;DHT22;5262;59.958;17.726;2023-02-01T04:35:48;-3.50;99.90
10431;DHT22;5262;59.958;17.726;2023-02-01T04:38:14;-3.50;99.90
10431;DHT22;5262;59.958;17.726;2023-02-01T04:40:39;-3.50;99.90
10431;DHT22;5262;59.958;17.726;2023-02-01T04:43:05;-3.50;99.90
10431;DHT22;5262;59.958;17.726;2023-02-01T04:45:31;-3.50;99.90
10431;DHT22;5262;59.958;17.726;2023-02-01T04:47:57;-3.50;99.90
10431;DHT22;5262;59.958;17.726;2023-02-01T04:50:22;-3.50;99.90
10431;DHT22;5262;59.958;17.726;2023-02-01T04:52:49;-3.50;99.90
10431;DHT22;5262;59.958;17.726;2023-02-01T04:55:15;-3.40;99.90
10431;DHT22;5262;59.958;17.726;2023-02-01T04:57:41;-3.40;99.90
10431;DHT22;5262;59.958;17.726;2023-02-01T05:00:08;-3.40;99.90
10431;DHT22;5262;59.958;17.726;2023-02-01T05:02:34;-3.40;99.90
10431;DHT22;5262;59.958;17.726;2023-02-01T05:05:00;-3.40;99.90
10431;DHT22;5262;59.958;17.726;2023-02-01T05:07:26;-3.30;99.90
10431;DHT22;5262;59.958;17.726;2023-02-01T05:09:52;-3.30;99.90
10431;DHT22;5262;59.958;17.726;2023-02-01T05:12:17;-3.30;99.90
10431;DHT22;5262;59.958;17.726;2023-02-01T05:15:02;-3.30;99.90
10431;DHT22;5262;59.958;17.726;2023-02-01T05:17:28;-3.30;99.90
10431;DHT22;5262;59.958;17.726;2023-02-01T05:19:53;-3.30;99.90
10431;DHT22;5262;59.958;17.726;2023-02-01T05:22:19;-3.30;99.90
10431;DHT22;5262;59.958;17.726;2023-02-01T05:24:45;-3.30;99.90
10431;DHT22;5262;59.958;17.726;2023-02-01T05:27:11;-3.30;99.90
10431;DHT22;5262;59.958;17.726;2023-02-01T05:29:37;-3.30;99.90
10431;DHT22;5262;59.958;17.726;2023-02-01T05:32:02;-3.30;99.90
10431;DHT22;5262;59.958;17.726;2023-02-01T05:34:28;-3.30;99.90
10431;DHT22;5262;59.958;17.726;2023-02-01T05:36:53;-3.30;99.90
10431;DHT22;5262;59.958;17.726;2023-02-01T05:39:19;-3.20;99.90
10431;DHT22;5262;59.958;17.726;2023-02-01T05:41:45;-3.20;99.90
10431;DHT22;5262;59.958;17.726;2023-02-01T05:44:11;-3.20;99.90
10431;DHT22;5262;59.958;17.726;2023-02-01T05:46:37;-3.30;99.90
10431;DHT22;5262;59.958;17.726;2023-02-01T05:49:03;-3.30;99.90
10431;DHT22;5262;59.958;17.726;2023-02-01T05:51:29;-3.30;99.90
10431;DHT22;5262;59.958;17.726;2023-02-01T05:53:54;-3.20;99.90
10431;DHT22;5262;59.958;17.726;2023-02-01T05:56:20;-3.20;99.90
10431;DHT22;5262;59.958;17.726;2023-02-01T05:58:46;-3.10;99.90
10431;DHT22;5262;59.958;17.726;2023-02-01T06:01:11;-3.10;99.90
10431;DHT22;5262;59.958;17.726;2023-02-01T06:03:37;-3.10;99.90
10431;DHT22;5262;59.958;17.726;2023-02-01T06:06:02;-3.20;99.90
10431;DHT22;5262;59.958;17.726;2023-02-01T06:08:29;-3.10;99.90
10431;DHT22;5262;59.958;17.726;2023-02-01T06:11:03;-3.10;99.90
10431;DHT22;5262;59.958;17.726;2023-02-01T06:13:29;-3.10;99.90
10431;DHT22;5262;59.958;17.726;2023-02-01T06:15:55;-3.10;99.90
10431;DHT22;5262;59.958;17.726;2023-02-01T06:18:23;-3.10;99.90
10431;DHT22;5262;59.958;17.726;2023-02-01T06:20:53;-3.00;99.90
10431;DHT22;5262;59.958;17.726;2023-02-01T06:23:19;-3.00;99.90
10431;DHT22;5262;59.958;17.726;2023-02-01T06:25:44;-3.00;99.90
10431;DHT22;5262;59.958;17.726;2023-02-01T06:28:10;-3.00;99.90
10431;DHT22;5262;59.958;17.726;2023-02-01T06:30:36;-3.00;99.90
10431;DHT22;5262;59.958;17.726;2023-02-01T06:33:02;-3.00;99.90
10431;DHT22;5262;59.958;17.726;2023-02-01T06:35:27;-3.10;99.90
10431;DHT22;5262;59.958;17.726;2023-02-01T06:37:53;-3.00;99.90
10431;DHT22;5262;59.958;17.726;2023-02-01T06:40:19;-3.00;99.90
10431;DHT22;5262;59.958;17.726;2023-02-01T06:42:44;-3.00;99.90
10431;DHT22;5262;59.958;17.726;2023-02-01T06:45:10;-2.90;99.90
10431;DHT22;5262;59.958;17.726;2023-02-01T06:47:35;-2.90;99.90
10431;DHT22;5262;59.958;17.726;2023-02-01T06:50:01;-2.90;99.90
10431;DHT22;5262;59.958;17.726;2023-02-01T06:52:27;-2.90;99.90
10431;DHT22;5262;59.958;17.726;2023-02-01T06:54:52;-2.90;99.90
10431;DHT22;5262;59.958;17.726;2023-02-01T06:57:18;-2.90;99.90
10431;DHT22;5262;59.958;17.726;2023-02-01T06:59:44;-2.90;99.90
10431;DHT22;5262;59.958;17.726;2023-02-01T07:02:11;-2.90;99.90
10431;DHT22;5262;59.958;17.726;2023-02-01T07:04:37;-2.90;99.90
10431;DHT22;5262;59.958;17.726;2023-02-01T07:07:03;-2.90;99.90
10431;DHT22;5262;59.958;17.726;2023-02-01T07:09:28;-2.90;99.90
10431;DHT22;5262;59.958;17.726;2023-02-01T07:11:54;-2.80;99.90
10431;DHT22;5262;59.958;17.726;2023-02-01T07:14:20;-2.90;99.90
10431;DHT22;5262;59.958;17.726;2023-02-01T07:16:45;-2.80;99.90
10431;DHT22;5262;59.958;17.726;2023-02-01T07:19:11;-2.80;99.90
10431;DHT22;5262;59.958;17.726;2023-02-01T07:21:37;-2.80;99.90
10431;DHT22;5262;59.958;17.726;2023-02-01T07:24:02;-2.80;99.90
10431;DHT22;5262;59.958;17.726;2023-02-01T07:26:28;-2.70;99.90
10431;DHT22;5262;59.958;17.726;2023-02-01T07:28:53;-2.80;99.90
10431;DHT22;5262;59.958;17.726;2023-02-01T07:31:19;-2.80;99.90
10431;DHT22;5262;59.958;17.726;2023-02-01T07:33:48;-2.70;99.90
10431;DHT22;5262;59.958;17.726;2023-02-01T07:36:17;-2.70;99.90
10431;DHT22;5262;59.958;17.726;2023-02-01T07:38:43;-2.70;99.90
10431;DHT22;5262;59.958;17.726;2023-02-01T07:41:09;-2.70;99.90
10431;DHT22;5262;59.958;17.726;2023-02-01T07:43:35;-2.70;99.90
10431;DHT22;5262;59.958;17.726;2023-02-01T07:46:02;-2.70;99.90
10431;DHT22;5262;59.958;17.726;2023-02-01T07:48:28;-2.60;99.90
10431;DHT22;5262;59.958;17.726;2023-02-01T07:50:59;-2.60;99.90
10431;DHT22;5262;59.958;17.726;2023-02-01T07:53:25;-2.60;99.90
10431;DHT22;5262;59.958;17.726;2023-02-01T07:55:50;-2.60;99.90
10431;DHT22;5262;59.958;17.726;2023-02-01T07:58:16;-2.60;99.90
10431;DHT22;5262;59.958;17.726;2023-02-01T08:00:42;-2.60;99.90
10431;DHT22;5262;59.958;17.726;2023-02-01T08:03:26;-2.60;99.90
10431;DHT22;5262;59.958;17.726;2023-02-01T08:05:55;-2.60;99.90
10431;DHT22;5262;59.958;17.726;2023-02-01T08:08:21;-2.50;99.90
10431;DHT22;5262;59.958;17.726;2023-02-01T08:10:47;-2.50;99.90
10431;DHT22;5262;59.958;17.726;2023-02-01T08:13:13;-2.50;99.90
10431;DHT22;5262;59.958;17.726;2023-02-01T08:15:39;-2.50;99.90
10431;DHT22;5262;59.958;17.726;2023-02-01T08:18:05;-2.50;99.90
10431;DHT22;5262;59.958;17.726;2023-02-01T08:20:31;-2.40;99.90
10431;DHT22;5262;59.958;17.726;2023-02-01T08:22:57;-2.30;99.90
10431;DHT22;5262;59.958;17.726;2023-02-01T08:25:23;-2.30;99.90
10431;DHT22;5262;59.958;17.726;2023-02-01T08:27:50;-2.20;99.90
10431;DHT22;5262;59.958;17.726;2023-02-01T08:30:16;-2.20;99.90
10431;DHT22;5262;59.958;17.726;2023-02-01T08:32:41;-2.00;99.90
10431;DHT22;5262;59.958;17.726;2023-02-01T08:35:07;-2.00;99.90
10431;DHT22;5262;59.958;17.726;2023-02-01T08:37:33;-2.00;99.90
10431;DHT22;5262;59.958;17.726;2023-02-01T08:39:59;-1.90;99.90
10431;DHT22;5262;59.958;17.726;2023-02-01T08:42:25;-1.90;99.90
10431;DHT22;5262;59.958;17.726;2023-02-01T08:45:09;-1.90;99.90
10431;DHT22;5262;59.958;17.726;2023-02-01T08:47:35;-1.80;99.90
10431;DHT22;5262;59.958;17.726;2023-02-01T08:50:01;-1.80;99.90
10431;DHT22;5262;59.958;17.726;2023-02-01T08:52:26;-1.80;99.90
10431;DHT22;5262;59.958;17.726;2023-02-01T08:54:52;-1.70;99.90
10431;DHT22;5262;59.958;17.726;2023-02-01T08:57:18;-1.60;99.90
10431;DHT22;5262;59.958;17.726;2023-02-01T08:59:43;-1.50;99.90
10431;DHT22;5262;59.958;17.726;2023-02-01T09:02:13;-1.40;99.90
10431;DHT22;5262;59.958;17.726;2023-02-01T09:04:39;-1.30;99.90
10431;DHT22;5262;59.958;17.726;2023-02-01T09:07:05;-1.10;99.90
10431;DHT22;5262;59.958;17.726;2023-02-01T09:09:31;-1.10;99.90
10431;DHT22;5262;59.958;17.726;2023-02-01T09:11:56;-1.00;99.90
10431;DHT22;5262;59.958;17.726;2023-02-01T09:14:22;-0.80;99.90
10431;DHT22;5262;59.958;17.726;2023-02-01T09:16:48;-0.70;99.90
10431;DHT22;5262;59.958;17.726;2023-02-01T09:19:14;-0.60;99.90
10431;DHT22;5262;59.958;17.726;2023-02-01T09:21:39;-0.40;99.90
10431;DHT22;5262;59.958;17.726;2023-02-01T09:24:05;-0.30;99.90
10431;DHT22;5262;59.958;17.726;2023-02-01T09:26:32;-0.10;99.90
10431;DHT22;5262;59.958;17.726;2023-02-01T09:28:58;-0.10;99.90
10431;DHT22;5262;59.958;17.726;2023-02-01T09:31:24;0.00;99.90
10431;DHT22;5262;59.958;17.726;2023-02-01T09:33:50;-0.10;99.90
10431;DHT22;5262;59.958;17.726;2023-02-01T09:36:16;-0.20;99.90
10431;DHT22;5262;59.958;17.726;2023-02-01T09:38:41;-0.10;99.90
10431;DHT22;5262;59.958;17.726;2023-02-01T09:41:37;-0.10;99.90
10431;DHT22;5262;59.958;17.726;2023-02-01T09:44:44;-0.40;99.90
10431;DHT22;5262;59.958;17.726;2023-02-01T09:47:17;-0.50;99.90
10431;DHT22;5262;59.958;17.726;2023-02-01T09:50:21;-0.70;99.90
10431;DHT22;5262;59.958;17.726;2023-02-01T09:55:43;-0.70;99.90
10431;DHT22;5262;59.958;17.726;2023-02-01T09:58:29;-0.60;99.90
10431;DHT22;5262;59.958;17.726;2023-02-01T10:00:59;-0.50;99.90
10431;DHT22;5262;59.958;17.726;2023-02-01T10:03:28;-0.70;99.90
10431;DHT22;5262;59.958;17.726;2023-02-01T10:08:56;-0.40;99.90
10431;DHT22;5262;59.958;17.726;2023-02-01T10:11:52;-0.50;99.90
10431;DHT22;5262;59.958;17.726;2023-02-01T10:22:43;-0.30;99.90
10431;DHT22;5262;59.958;17.726;2023-02-01T10:25:28;-0.40;99.90
10431;DHT22;5262;59.958;17.726;2023-02-01T10:27:56;-0.50;99.90
10431;DHT22;5262;59.958;17.726;2023-02-01T10:30:25;-0.40;99.90
10431;DHT22;5262;59.958;17.726;2023-02-01T10:33:01;-0.40;99.90
10431;DHT22;5262;59.958;17.726;2023-02-01T10:35:34;-0.30;99.90
10431;DHT22;5262;59.958;17.726;2023-02-01T10:38:02;-0.20;99.90
10431;DHT22;5262;59.958;17.726;2023-02-01T10:40:31;0.00;99.90
10431;DHT22;5262;59.958;17.726;2023-02-01T10:43:01;0.10;99.90
10431;DHT22;5262;59.958;17.726;2023-02-01T10:45:29;0.10;99.90
10431;DHT22;5262;59.958;17.726;2023-02-01T10:47:57;0.20;99.90
10431;DHT22;5262;59.958;17.726;2023-02-01T10:50:44;0.30;99.90
10431;DHT22;5262;59.958;17.726;2023-02-01T10:55:47;0.00;99.90
10431;DHT22;5262;59.958;17.726;2023-02-01T10:58:28;-0.10;99.90
10431;DHT22;5262;59.958;17.726;2023-02-01T11:00:58;-0.20;99.90
10431;DHT22;5262;59.958;17.726;2023-02-01T11:03:39;0.00;99.90
10431;DHT22;5262;59.958;17.726;2023-02-01T11:06:13;0.00;99.90
10431;DHT22;5262;59.958;17.726;2023-02-01T11:08:51;0.20;99.90
10431;DHT22;5262;59.958;17.726;2023-02-01T11:11:17;0.50;99.90
10431;DHT22;5262;59.958;17.726;2023-02-01T11:13:43;0.80;99.90
10431;DHT22;5262;59.958;17.726;2023-02-01T11:16:12;2.30;99.90
10431;DHT22;5262;59.958;17.726;2023-02-01T11:18:39;2.70;99.90
10431;DHT22;5262;59.958;17.726;2023-02-01T11:21:06;2.40;99.90
10431;DHT22;5262;59.958;17.726;2023-02-01T11:23:33;2.60;99.90
10431;DHT22;5262;59.958;17.726;2023-02-01T11:26:14;4.50;99.90
10431;DHT22;5262;59.958;17.726;2023-02-01T11:28:45;6.60;99.90
10431;DHT22;5262;59.958;17.726;2023-02-01T11:31:14;7.50;97.50
10431;DHT22;5262;59.958;17.726;2023-02-01T11:33:55;8.00;95.80
10431;DHT22;5262;59.958;17.726;2023-02-01T11:36:27;7.80;94.10
10431;DHT22;5262;59.958;17.726;2023-02-01T11:39:08;8.10;92.00
10431;DHT22;5262;59.958;17.726;2023-02-01T11:41:44;6.90;91.40
10431;DHT22;5262;59.958;17.726;2023-02-01T11:47:27;4.30;94.70
10431;DHT22;5262;59.958;17.726;2023-02-01T11:49:57;3.50;95.90
10431;DHT22;5262;59.958;17.726;2023-02-01T11:53:02;3.00;96.70
10431;DHT22;5262;59.958;17.726;2023-02-01T11:55:56;2.40;97.80
10431;DHT22;5262;59.958;17.726;2023-02-01T12:01:13;1.80;99.80
10431;DHT22;5262;59.958;17.726;2023-02-01T12:06:29;1.60;99.90
10431;DHT22;5262;59.958;17.726;2023-02-01T12:23:37;1.70;99.90
10431;DHT22;5262;59.958;17.726;2023-02-01T12:28:55;1.30;99.90
10431;DHT22;5262;59.958;17.726;2023-02-01T12:31:38;1.10;99.90
10431;DHT22;5262;59.958;17.726;2023-02-01T12:34:26;1.00;99.90
10431;DHT22;5262;59.958;17.726;2023-02-01T12:45:04;0.50;99.90
10431;DHT22;5262;59.958;17.726;2023-02-01T12:47:48;0.60;99.90
10431;DHT22;5262;59.958;17.726;2023-02-01T12:50:29;0.50;99.90
10431;DHT22;5262;59.958;17.726;2023-02-01T12:53:18;0.50;99.90
10431;DHT22;5262;59.958;17.726;2023-02-01T12:55:50;0.40;99.90
10431;DHT22;5262;59.958;17.726;2023-02-01T12:58:32;0.40;99.90
10431;DHT22;5262;59.958;17.726;2023-02-01T13:01:21;0.40;99.90
10431;DHT22;5262;59.958;17.726;2023-02-01T13:09:19;0.20;99.90
10431;DHT22;5262;59.958;17.726;2023-02-01T13:11:48;0.20;99.90
10431;DHT22;5262;59.958;17.726;2023-02-01T13:14:35;0.20;99.90
10431;DHT22;5262;59.958;17.726;2023-02-01T13:19:41;0.10;99.90
10431;DHT22;5262;59.958;17.726;2023-02-01T13:22:15;0.00;99.90
10431;DHT22;5262;59.958;17.726;2023-02-01T13:24:57;0.00;99.90
10431;DHT22;5262;59.958;17.726;2023-02-01T13:27:26;-0.10;99.90
10431;DHT22;5262;59.958;17.726;2023-02-01T13:30:07;0.00;99.90
10431;DHT22;5262;59.958;17.726;2023-02-01T13:43:51;-0.20;99.90
10431;DHT22;5262;59.958;17.726;2023-02-01T13:46:18;-0.20;99.90
10431;DHT22;5262;59.958;17.726;2023-02-01T13:48:57;-0.30;99.90
10431;DHT22;5262;59.958;17.726;2023-02-01T13:51:40;-0.20;99.90
10431;DHT22;5262;59.958;17.726;2023-02-01T13:54:07;-0.20;99.90
10431;DHT22;5262;59.958;17.726;2023-02-01T13:56:48;-0.20;99.90
10431;DHT22;5262;59.958;17.726;2023-02-01T14:05:06;-0.40;99.90
10431;DHT22;5262;59.958;17.726;2023-02-01T14:07:33;-0.50;99.90
10431;DHT22;5262;59.958;17.726;2023-02-01T14:10:05;-0.60;99.90
10431;DHT22;5262;59.958;17.726;2023-02-01T14:12:46;-0.60;99.90
10431;DHT22;5262;59.958;17.726;2023-02-01T14:15:25;-0.60;99.90
10431;DHT22;5262;59.958;17.726;2023-02-01T14:17:51;-0.60;99.90
10431;DHT22;5262;59.958;17.726;2023-02-01T14:20:42;-0.60;99.90
10431;DHT22;5262;59.958;17.726;2023-02-01T14:23:20;-0.60;99.90
10431;DHT22;5262;59.958;17.726;2023-02-01T14:25:48;-0.60;99.90
10431;DHT22;5262;59.958;17.726;2023-02-01T14:28:28;-0.70;99.90
10431;DHT22;5262;59.958;17.726;2023-02-01T14:30:56;-0.70;99.90
10431;DHT22;5262;59.958;17.726;2023-02-01T14:33:25;-0.70;99.90
10431;DHT22;5262;59.958;17.726;2023-02-01T14:36:07;-0.60;99.90
10431;DHT22;5262;59.958;17.726;2023-02-01T14:38:34;-0.70;99.90
10431;DHT22;5262;59.958;17.726;2023-02-01T14:43:50;-0.70;99.90
10431;DHT22;5262;59.958;17.726;2023-02-01T14:46:16;-0.70;99.90
10431;DHT22;5262;59.958;17.726;2023-02-01T14:48:44;-0.70;99.90
10431;DHT22;5262;59.958;17.726;2023-02-01T14:51:14;-0.80;99.90
10431;DHT22;5262;59.958;17.726;2023-02-01T14:53:41;-0.80;99.90
10431;DHT22;5262;59.958;17.726;2023-02-01T14:56:13;-0.90;99.90
10431;DHT22;5262;59.958;17.726;2023-02-01T14:59:00;-0.90;99.90
10431;DHT22;5262;59.958;17.726;2023-02-01T15:01:32;-0.90;99.90
10431;DHT22;5262;59.958;17.726;2023-02-01T15:04:06;-1.00;99.90
10431;DHT22;5262;59.958;17.726;2023-02-01T15:06:45;-1.00;99.90
10431;DHT22;5262;59.958;17.726;2023-02-01T15:14:24;-1.10;99.90
10431;DHT22;5262;59.958;17.726;2023-02-01T15:16:50;-1.10;99.90
10431;DHT22;5262;59.958;17.726;2023-02-01T15:19:21;-1.10;99.90
10431;DHT22;5262;59.958;17.726;2023-02-01T15:21:49;-1.20;99.90
10431;DHT22;5262;59.958;17.726;2023-02-01T15:24:33;-1.20;99.90
10431;DHT22;5262;59.958;17.726;2023-02-01T15:27:04;-1.20;99.90
10431;DHT22;5262;59.958;17.726;2023-02-01T15:29:30;-1.30;99.90
10431;DHT22;5262;59.958;17.726;2023-02-01T15:31:58;-1.30;99.90
10431;DHT22;5262;59.958;17.726;2023-02-01T15:34:47;-1.30;99.90
10431;DHT22;5262;59.958;17.726;2023-02-01T15:37:14;-1.40;99.90
10431;DHT22;5262;59.958;17.726;2023-02-01T15:42:41;-1.40;99.90
10431;DHT22;5262;59.958;17.726;2023-02-01T15:45:25;-1.50;99.90
10431;DHT22;5262;59.958;17.726;2023-02-01T15:47:54;-1.50;99.90
10431;DHT22;5262;59.958;17.726;2023-02-01T15:50:20;-1.50;99.90
10431;DHT22;5262;59.958;17.726;2023-02-01T15:52:54;-1.50;99.90
10431;DHT22;5262;59.958;17.726;2023-02-01T15:55:24;-1.50;99.90
10431;DHT22;5262;59.958;17.726;2023-02-01T15:57:57;-1.50;99.90
10431;DHT22;5262;59.958;17.726;2023-02-01T16:00:25;-1.50;99.90
10431;DHT22;5262;59.958;17.726;2023-02-01T16:03:05;-1.50;99.90
10431;DHT22;5262;59.958;17.726;2023-02-01T16:08:17;-1.50;99.90
10431;DHT22;5262;59.958;17.726;2023-02-01T16:10:48;-1.50;99.90
10431;DHT22;5262;59.958;17.726;2023-02-01T16:13:15;-1.60;99.90
10431;DHT22;5262;59.958;17.726;2023-02-01T16:15:41;-1.50;99.90
10431;DHT22;5262;59.958;17.726;2023-02-01T16:18:08;-1.50;99.90
10431;DHT22;5262;59.958;17.726;2023-02-01T16:20:36;-1.50;99.90
10431;DHT22;5262;59.958;17.726;2023-02-01T16:23:02;-1.50;99.90
10431;DHT22;5262;59.958;17.726;2023-02-01T16:25:28;-1.50;99.90
10431;DHT22;5262;59.958;17.726;2023-02-01T16:27:54;-1.50;99.90
10431;DHT22;5262;59.958;17.726;2023-02-01T16:30:20;-1.50;99.90
10431;DHT22;5262;59.958;17.726;2023-02-01T16:32:59;-1.50;99.90
10431;DHT22;5262;59.958;17.726;2023-02-01T16:35:36;-1.50;99.90
10431;DHT22;5262;59.958;17.726;2023-02-01T16:38:08;-1.50;99.90
10431;DHT22;5262;59.958;17.726;2023-02-01T16:40:39;-1.50;99.90
10431;DHT22;5262;59.958;17.726;2023-02-01T16:43:16;-1.50;99.90
10431;DHT22;5262;59.958;17.726;2023-02-01T16:45:43;-1.50;99.90
10431;DHT22;5262;59.958;17.726;2023-02-01T16:48:27;-1.50;99.90
10431;DHT22;5262;59.958;17.726;2023-02-01T16:50:59;-1.60;99.90
10431;DHT22;5262;59.958;17.726;2023-02-01T16:53:26;-1.60;99.90
10431;DHT22;5262;59.958;17.726;2023-02-01T16:55:55;-1.60;99.90
10431;DHT22;5262;59.958;17.726;2023-02-01T16:58:23;-1.50;99.90
10431;DHT22;5262;59.958;17.726;2023-02-01T17:00:50;-1.50;99.90
10431;DHT22;5262;59.958;17.726;2023-02-01T17:03:19;-1.50;99.90
10431;DHT22;5262;59.958;17.726;2023-02-01T17:05:52;-1.50;99.90
10431;DHT22;5262;59.958;17.726;2023-02-01T17:08:26;-1.50;99.90
10431;DHT22;5262;59.958;17.726;2023-02-01T17:10:53;-1.50;99.90
10431;DHT22;5262;59.958;17.726;2023-02-01T17:13:18;-1.50;99.90
10431;DHT22;5262;59.958;17.726;2023-02-01T17:16:03;-1.50;99.90
10431;DHT22;5262;59.958;17.726;2023-02-01T17:18:32;-1.50;99.90
10431;DHT22;5262;59.958;17.726;2023-02-01T17:21:00;-1.50;99.90
10431;DHT22;5262;59.958;17.726;2023-02-01T17:23:27;-1.50;99.90
10431;DHT22;5262;59.958;17.726;2023-02-01T17:25:53;-1.50;99.90
10431;DHT22;5262;59.958;17.726;2023-02-01T17:28:19;-1.50;99.90
10431;DHT22;5262;59.958;17.726;2023-02-01T17:30:45;-1.50;99.90
10431;DHT22;5262;59.958;17.726;2023-02-01T17:33:30;-1.50;99.90
10431;DHT22;5262;59.958;17.726;2023-02-01T17:35:56;-1.40;99.90
10431;DHT22;5262;59.958;17.726;2023-02-01T17:38:23;-1.40;99.90
10431;DHT22;5262;59.958;17.726;2023-02-01T17:40:49;-1.40;99.90
10431;DHT22;5262;59.958;17.726;2023-02-01T17:43:21;-1.40;99.90
10431;DHT22;5262;59.958;17.726;2023-02-01T17:46:13;-1.40;99.90
10431;DHT22;5262;59.958;17.726;2023-02-01T17:48:39;-1.40;99.90